Time;durP1;ratioP1;P1;durP2;ratioP2;P2;SDS_P1;SDS_P2;PMS_P1;PMS_P2;Temp;Humidity;BMP_temperature;BMP_pressure;BME280_temperature;BME280_humidity;BME280_pressure;Samples;Min_cycle;Max_cycle;Signal;HPM_P1;HPM_P2
2023/06/02 00:01:02;;;;;;;;;;;12.20;99.90;;;;;;5133353;28;20007;-43
2023/06/02 00:03:32;;;;;;;;;;;12.20;99.90;;;;;;5132506;28;20293;-44
2023/06/02 00:05:59;;;;;;;;;;;12.20;99.90;;;;;;5133469;28;19907;-42
2023/06/02 00:08:25;;;;;;;;;;;12.20;99.90;;;;;;5133606;27;20024;-44
2023/06/02 00:10:50;;;;;;;;;;;12.20;99.90;;;;;;5136493;27;19937;-43
2023/06/02 00:13:16;;;;;;;;;;;12.10;99.90;;;;;;5136997;27;19915;-45
2023/06/02 00:15:41;;;;;;;;;;;12.20;99.90;;;;;;5137049;27;19911;-48
2023/06/02 00:18:07;;;;;;;;;;;12.20;99.90;;;;;;5136442;27;19915;-42
2023/06/02 00:20:33;;;;;;;;;;;12.20;99.90;;;;;;5137093;27;19911;-43
2023/06/02 00:23:00;;;;;;;;;;;12.20;99.90;;;;;;5137198;27;19911;-42
2023/06/02 00:25:25;;;;;;;;;;;12.10;99.90;;;;;;5136143;27;19982;-45
2023/06/02 00:27:51;;;;;;;;;;;12.10;99.90;;;;;;5137021;27;19941;-43
2023/06/02 00:30:17;;;;;;;;;;;12.10;99.90;;;;;;5136865;27;19969;-42
2023/06/02 00:32:43;;;;;;;;;;;12.10;99.90;;;;;;5136036;27;19911;-44
2023/06/02 00:35:08;;;;;;;;;;;12.10;99.90;;;;;;5136713;27;20365;-44
2023/06/02 00:37:33;;;;;;;;;;;12.10;99.90;;;;;;5135679;27;19920;-42
2023/06/02 00:39:59;;;;;;;;;;;12.10;99.90;;;;;;5136697;27;19907;-42
2023/06/02 00:42:24;;;;;;;;;;;12.10;99.90;;;;;;5136569;27;19914;-42
2023/06/02 00:44:50;;;;;;;;;;;12.10;99.90;;;;;;5135795;27;19911;-44
2023/06/02 00:47:15;;;;;;;;;;;12.10;99.90;;;;;;5136624;27;19908;-45
2023/06/02 00:49:41;;;;;;;;;;;12.10;99.90;;;;;;5136359;27;20281;-43
2023/06/02 00:52:08;;;;;;;;;;;12.10;99.90;;;;;;5135676;27;19908;-44
2023/06/02 00:54:33;;;;;;;;;;;12.10;99.90;;;;;;5136335;27;19930;-47
2023/06/02 00:56:59;;;;;;;;;;;12.10;99.90;;;;;;5136369;27;19954;-44
2023/06/02 00:59:24;;;;;;;;;;;12.10;99.90;;;;;;5135511;27;19914;-44
2023/06/02 01:01:50;;;;;;;;;;;12.10;99.90;;;;;;5136403;27;20277;-45
2023/06/02 01:04:17;;;;;;;;;;;12.10;99.90;;;;;;5136332;27;20002;-47
2023/06/02 01:06:43;;;;;;;;;;;12.10;99.90;;;;;;5135396;27;19911;-43
2023/06/02 01:09:10;;;;;;;;;;;12.10;99.90;;;;;;5136183;27;19912;-43
2023/06/02 01:11:35;;;;;;;;;;;12.10;99.90;;;;;;5135986;27;19911;-42
2023/06/02 01:14:01;;;;;;;;;;;12.00;99.90;;;;;;5135470;27;19968;-42
2023/06/02 01:16:30;;;;;;;;;;;12.00;99.90;;;;;;5135963;27;19995;-43
2023/06/02 01:18:55;;;;;;;;;;;11.90;99.90;;;;;;5135944;27;20361;-42
2023/06/02 01:21:22;;;;;;;;;;;11.90;99.90;;;;;;5135067;27;19907;-43
2023/06/02 01:23:52;;;;;;;;;;;11.90;99.90;;;;;;5135919;27;19942;-43
2023/06/02 01:26:17;;;;;;;;;;;11.80;99.90;;;;;;5135813;27;19915;-42
2023/06/02 01:28:43;;;;;;;;;;;11.80;99.90;;;;;;5135031;27;19908;-42
2023/06/02 01:31:14;;;;;;;;;;;11.80;99.90;;;;;;5135733;27;20146;-44
2023/06/02 01:33:58;;;;;;;;;;;11.80;99.90;;;;;;5135563;27;19915;-44
2023/06/02 01:36:23;;;;;;;;;;;11.80;99.90;;;;;;5135313;27;19957;-42
2023/06/02 01:38:50;;;;;;;;;;;11.70;99.90;;;;;;5135494;27;19951;-44
2023/06/02 01:41:16;;;;;;;;;;;11.70;99.90;;;;;;5134810;27;19915;-43
2023/06/02 01:43:42;;;;;;;;;;;11.70;99.90;;;;;;5135417;27;19908;-43
2023/06/02 01:46:08;;;;;;;;;;;11.70;99.90;;;;;;5135400;27;19960;-42
2023/06/02 01:48:34;;;;;;;;;;;11.70;99.90;;;;;;5134542;27;20001;-44
2023/06/02 01:50:59;;;;;;;;;;;11.70;99.90;;;;;;5135353;27;20007;-45
2023/06/02 01:53:26;;;;;;;;;;;11.80;99.90;;;;;;5134906;27;20400;-42
2023/06/02 01:55:54;;;;;;;;;;;11.70;99.90;;;;;;5134594;27;19908;-42
2023/06/02 01:58:20;;;;;;;;;;;11.70;99.90;;;;;;5135035;27;20352;-44
2023/06/02 02:00:46;;;;;;;;;;;11.70;99.90;;;;;;5135287;27;20045;-42
2023/06/02 02:03:12;;;;;;;;;;;11.70;99.90;;;;;;5134177;27;19907;-42
2023/06/02 02:05:37;;;;;;;;;;;11.70;99.90;;;;;;5134893;27;20274;-47
2023/06/02 02:08:04;;;;;;;;;;;11.70;99.90;;;;;;5134993;27;19911;-43
2023/06/02 02:10:30;;;;;;;;;;;11.70;99.90;;;;;;5134127;27;19964;-42
2023/06/02 02:12:56;;;;;;;;;;;11.70;99.90;;;;;;5134723;27;19915;-47
2023/06/02 02:15:21;;;;;;;;;;;11.70;99.90;;;;;;5134819;27;19972;-43
2023/06/02 02:17:47;;;;;;;;;;;11.70;99.90;;;;;;5134035;27;20415;-44
2023/06/02 02:20:19;;;;;;;;;;;11.70;99.90;;;;;;5134673;27;19998;-44
2023/06/02 02:22:45;;;;;;;;;;;11.70;99.90;;;;;;5134840;27;19907;-42
2023/06/02 02:25:11;;;;;;;;;;;11.60;99.90;;;;;;5133808;27;19908;-42
2023/06/02 02:27:37;;;;;;;;;;;11.70;99.90;;;;;;5134586;27;19907;-43
2023/06/02 02:30:03;;;;;;;;;;;11.70;99.90;;;;;;5133805;27;19908;-43
2023/06/02 02:32:29;;;;;;;;;;;11.70;99.90;;;;;;5134215;27;19907;-43
2023/06/02 02:34:55;;;;;;;;;;;11.70;99.90;;;;;;5134390;27;20374;-43
2023/06/02 02:37:20;;;;;;;;;;;11.60;99.90;;;;;;5133418;27;19934;-44
2023/06/02 02:39:46;;;;;;;;;;;11.70;99.90;;;;;;5134426;27;19914;-44
2023/06/02 02:42:11;;;;;;;;;;;11.70;99.90;;;;;;5134418;27;19907;-41
2023/06/02 02:44:37;;;;;;;;;;;11.60;99.90;;;;;;5133540;27;19908;-44
2023/06/02 02:47:02;;;;;;;;;;;11.60;99.90;;;;;;5134402;27;20289;-44
2023/06/02 02:49:28;;;;;;;;;;;11.60;99.90;;;;;;5134001;27;19907;-42
2023/06/02 02:51:54;;;;;;;;;;;11.60;99.90;;;;;;5133513;27;19908;-42
2023/06/02 02:54:20;;;;;;;;;;;11.60;99.90;;;;;;5134057;27;20029;-46
2023/06/02 02:56:46;;;;;;;;;;;11.60;99.90;;;;;;5133963;27;19928;-47
2023/06/02 02:59:12;;;;;;;;;;;11.70;99.90;;;;;;5133404;27;19913;-43
2023/06/02 03:01:43;;;;;;;;;;;11.70;99.90;;;;;;5133958;27;20404;-42
2023/06/02 03:04:10;;;;;;;;;;;11.70;99.90;;;;;;5134005;27;19911;-43
2023/06/02 03:06:37;;;;;;;;;;;11.70;99.90;;;;;;5133068;27;19908;-43
2023/06/02 03:09:03;;;;;;;;;;;11.60;99.90;;;;;;5134016;27;19907;-42
2023/06/02 03:11:28;;;;;;;;;;;11.70;99.90;;;;;;5133860;27;19930;-44
2023/06/02 03:13:53;;;;;;;;;;;11.70;99.90;;;;;;5133095;27;20395;-42
2023/06/02 03:16:19;;;;;;;;;;;11.60;99.90;;;;;;5133883;27;19912;-43
2023/06/02 03:18:45;;;;;;;;;;;11.50;99.90;;;;;;5133789;27;19907;-45
2023/06/02 03:21:10;;;;;;;;;;;11.50;99.90;;;;;;5133001;27;19995;-44
2023/06/02 03:23:36;;;;;;;;;;;11.60;99.90;;;;;;5133723;28;19942;-42
2023/06/02 03:26:02;;;;;;;;;;;11.60;99.90;;;;;;5133818;28;20369;-42
2023/06/02 03:28:28;;;;;;;;;;;11.50;99.90;;;;;;5132839;28;20350;-45
2023/06/02 03:30:53;;;;;;;;;;;11.50;99.90;;;;;;5133734;28;19908;-42
2023/06/02 03:33:19;;;;;;;;;;;11.60;99.90;;;;;;5132757;28;19938;-44
2023/06/02 03:35:45;;;;;;;;;;;11.60;99.90;;;;;;5133606;28;19907;-43
2023/06/02 03:38:11;;;;;;;;;;;11.60;99.90;;;;;;5133495;28;19926;-43
2023/06/02 03:40:36;;;;;;;;;;;11.60;99.90;;;;;;5132696;28;20237;-42
2023/06/02 03:43:02;;;;;;;;;;;11.60;99.90;;;;;;5133672;27;19947;-41
2023/06/02 03:45:27;;;;;;;;;;;11.60;99.90;;;;;;5137677;27;19907;-42
2023/06/02 03:47:53;;;;;;;;;;;11.60;99.90;;;;;;5137245;27;20156;-41
2023/06/02 03:50:18;;;;;;;;;;;11.70;99.90;;;;;;5137741;27;19911;-42
2023/06/02 03:52:44;;;;;;;;;;;11.60;99.90;;;;;;5137600;27;20411;-41
2023/06/02 03:55:09;;;;;;;;;;;11.70;99.90;;;;;;5136759;27;19925;-46
2023/06/02 03:57:35;;;;;;;;;;;11.70;99.90;;;;;;5137563;27;20346;-44
2023/06/02 04:00:00;;;;;;;;;;;11.70;99.90;;;;;;5137425;27;19953;-43
2023/06/02 04:02:26;;;;;;;;;;;11.70;99.90;;;;;;5136604;27;19952;-44
2023/06/02 04:04:52;;;;;;;;;;;11.70;99.90;;;;;;5137483;27;19908;-45
2023/06/02 04:07:17;;;;;;;;;;;11.80;99.90;;;;;;5137298;27;20285;-42
2023/06/02 04:09:43;;;;;;;;;;;11.80;99.90;;;;;;5136536;27;19953;-43
2023/06/02 04:12:08;;;;;;;;;;;11.80;99.90;;;;;;5137327;27;19907;-43
2023/06/02 04:14:34;;;;;;;;;;;11.80;99.90;;;;;;5137041;27;19952;-45
2023/06/02 04:16:59;;;;;;;;;;;11.80;99.90;;;;;;5136324;27;19979;-41
2023/06/02 04:19:25;;;;;;;;;;;11.80;99.90;;;;;;5137071;27;19908;-43
2023/06/02 04:21:51;;;;;;;;;;;11.80;99.90;;;;;;5137212;27;19914;-43
2023/06/02 04:24:17;;;;;;;;;;;11.80;99.90;;;;;;5136335;27;20009;-42
2023/06/02 04:26:42;;;;;;;;;;;11.90;99.90;;;;;;5136927;27;20071;-43
2023/06/02 04:29:08;;;;;;;;;;;11.90;99.90;;;;;;5136971;27;20259;-41
2023/06/02 04:31:39;;;;;;;;;;;11.90;99.90;;;;;;5136005;27;19911;-42
2023/06/02 04:34:06;;;;;;;;;;;11.90;99.90;;;;;;5136859;27;20124;-43
2023/06/02 04:36:32;;;;;;;;;;;11.90;99.90;;;;;;5136317;27;20290;-42
2023/06/02 04:38:57;;;;;;;;;;;12.00;99.90;;;;;;5136136;27;19908;-42
2023/06/02 04:41:23;;;;;;;;;;;12.00;99.90;;;;;;5136798;27;19907;-43
2023/06/02 04:43:48;;;;;;;;;;;12.00;99.90;;;;;;5135928;27;19989;-41
2023/06/02 04:46:13;;;;;;;;;;;12.00;99.90;;;;;;5136768;27;20261;-45
2023/06/02 04:48:42;;;;;;;;;;;12.00;99.90;;;;;;5136607;27;19919;-43
2023/06/02 04:51:07;;;;;;;;;;;12.00;99.90;;;;;;5135801;27;19960;-42
2023/06/02 04:53:33;;;;;;;;;;;11.90;99.90;;;;;;5136385;27;19919;-43
2023/06/02 04:55:58;;;;;;;;;;;12.00;99.90;;;;;;5135971;27;19908;-43
2023/06/02 04:58:24;;;;;;;;;;;12.00;99.90;;;;;;5135841;27;19914;-44
2023/06/02 05:00:50;;;;;;;;;;;12.00;99.90;;;;;;5136289;27;20269;-42
2023/06/02 05:03:15;;;;;;;;;;;12.10;99.90;;;;;;5136268;27;20274;-42
2023/06/02 05:05:41;;;;;;;;;;;12.10;99.90;;;;;;5135420;27;19942;-41
2023/06/02 05:08:06;;;;;;;;;;;12.10;99.90;;;;;;5136074;27;19911;-42
2023/06/02 05:10:32;;;;;;;;;;;12.10;99.90;;;;;;5136142;27;19908;-42
2023/06/02 05:12:58;;;;;;;;;;;12.20;99.90;;;;;;5135218;27;19908;-45
2023/06/02 05:15:23;;;;;;;;;;;12.20;99.90;;;;;;5136020;27;19918;-43
2023/06/02 05:17:49;;;;;;;;;;;12.20;99.90;;;;;;5136069;27;19907;-42
2023/06/02 05:20:14;;;;;;;;;;;12.20;99.90;;;;;;5135288;27;19908;-43
2023/06/02 05:22:40;;;;;;;;;;;12.30;99.90;;;;;;5135888;27;19907;-45
2023/06/02 05:25:06;;;;;;;;;;;12.30;99.90;;;;;;5135830;27;19968;-42
2023/06/02 05:27:31;;;;;;;;;;;12.30;99.90;;;;;;5135037;27;19907;-42
2023/06/02 05:29:56;;;;;;;;;;;12.40;99.90;;;;;;5135620;27;19974;-42
2023/06/02 05:32:24;;;;;;;;;;;12.40;99.90;;;;;;5135787;27;19908;-43
2023/06/02 05:34:50;;;;;;;;;;;12.40;99.90;;;;;;5134715;27;20179;-43
2023/06/02 05:37:15;;;;;;;;;;;12.50;99.90;;;;;;5135350;27;19942;-47
2023/06/02 05:39:41;;;;;;;;;;;12.50;99.90;;;;;;5135579;27;20424;-42
2023/06/02 05:42:07;;;;;;;;;;;12.50;99.90;;;;;;5134819;27;19907;-43
2023/06/02 05:44:33;;;;;;;;;;;12.50;99.90;;;;;;5135374;27;19968;-44
2023/06/02 05:46:58;;;;;;;;;;;12.60;99.90;;;;;;5134669;27;19908;-43
2023/06/02 05:49:23;;;;;;;;;;;12.60;99.90;;;;;;5135269;27;19915;-42
2023/06/02 05:51:49;;;;;;;;;;;12.60;99.90;;;;;;5135397;27;20369;-43
2023/06/02 05:54:14;;;;;;;;;;;12.60;99.90;;;;;;5134601;27;19951;-42
2023/06/02 05:56:40;;;;;;;;;;;12.70;99.90;;;;;;5135261;27;19914;-45
2023/06/02 05:59:07;;;;;;;;;;;12.70;99.90;;;;;;5135221;27;19908;-42
2023/06/02 06:01:33;;;;;;;;;;;12.70;99.90;;;;;;5134381;27;19908;-44
2023/06/02 06:03:58;;;;;;;;;;;12.80;99.90;;;;;;5134978;27;19907;-42
2023/06/02 06:06:24;;;;;;;;;;;12.80;99.90;;;;;;5134172;27;19915;-43
2023/06/02 06:08:49;;;;;;;;;;;12.80;99.90;;;;;;5134438;27;19908;-43
2023/06/02 06:11:15;;;;;;;;;;;12.80;99.90;;;;;;5135016;27;19907;-43
2023/06/02 06:13:40;;;;;;;;;;;12.80;99.90;;;;;;5134802;27;19947;-44
2023/06/02 06:16:06;;;;;;;;;;;12.90;99.90;;;;;;5134169;27;20369;-46
2023/06/02 06:18:31;;;;;;;;;;;13.00;99.90;;;;;;5134909;27;19937;-43
2023/06/02 06:20:57;;;;;;;;;;;13.00;99.90;;;;;;5134746;27;19907;-42
2023/06/02 06:23:22;;;;;;;;;;;13.10;99.90;;;;;;5134000;27;19911;-45
2023/06/02 06:25:48;;;;;;;;;;;13.10;99.90;;;;;;5134598;27;19957;-45
2023/06/02 06:28:13;;;;;;;;;;;13.20;99.90;;;;;;5134625;27;19914;-42
2023/06/02 06:30:39;;;;;;;;;;;13.20;99.90;;;;;;5133865;27;20453;-43
2023/06/02 06:33:06;;;;;;;;;;;13.20;99.90;;;;;;5134653;27;19986;-42
2023/06/02 06:35:31;;;;;;;;;;;13.30;99.90;;;;;;5134494;27;19911;-46
2023/06/02 06:37:57;;;;;;;;;;;13.30;99.90;;;;;;5133457;27;20011;-43
2023/06/02 06:40:23;;;;;;;;;;;13.40;99.90;;;;;;5134404;27;19907;-43
2023/06/02 06:42:48;;;;;;;;;;;13.40;99.90;;;;;;5134048;27;19907;-42
2023/06/02 06:45:14;;;;;;;;;;;13.50;99.90;;;;;;5133583;27;19960;-44
2023/06/02 06:47:39;;;;;;;;;;;13.60;99.90;;;;;;5134107;27;19951;-43
2023/06/02 06:50:05;;;;;;;;;;;13.60;99.90;;;;;;5134366;27;19939;-42
2023/06/02 06:52:31;;;;;;;;;;;13.60;99.90;;;;;;5133455;27;20000;-43
2023/06/02 06:54:56;;;;;;;;;;;13.70;99.90;;;;;;5134093;27;19915;-44
2023/06/02 06:57:22;;;;;;;;;;;13.80;99.90;;;;;;5133304;27;19908;-41
2023/06/02 06:59:47;;;;;;;;;;;13.80;99.90;;;;;;5134053;27;19911;-43
2023/06/02 07:02:13;;;;;;;;;;;13.90;99.90;;;;;;5134028;27;19933;-43
2023/06/02 07:04:39;;;;;;;;;;;13.90;99.90;;;;;;5133264;27;20370;-41
2023/06/02 07:07:05;;;;;;;;;;;14.00;99.90;;;;;;5134086;27;19954;-43
2023/06/02 07:09:30;;;;;;;;;;;14.10;99.90;;;;;;5133955;27;19922;-44
2023/06/02 07:11:56;;;;;;;;;;;14.20;99.90;;;;;;5133392;27;19968;-42
2023/06/02 07:14:22;;;;;;;;;;;14.30;99.90;;;;;;5133655;27;19916;-42
2023/06/02 07:16:50;;;;;;;;;;;14.30;99.90;;;;;;5134019;27;19976;-43
2023/06/02 07:19:16;;;;;;;;;;;14.40;99.90;;;;;;5132862;27;19930;-45
2023/06/02 07:21:41;;;;;;;;;;;14.40;99.90;;;;;;5133731;27;20278;-42
2023/06/02 07:24:07;;;;;;;;;;;14.40;99.90;;;;;;5133804;28;19907;-43
2023/06/02 07:26:32;;;;;;;;;;;14.50;99.90;;;;;;5133040;28;20055;-42
2023/06/02 07:28:58;;;;;;;;;;;14.60;99.90;;;;;;5133563;28;19915;-41
2023/06/02 07:31:23;;;;;;;;;;;14.70;99.90;;;;;;5133638;28;20259;-44
2023/06/02 07:33:48;;;;;;;;;;;14.70;99.90;;;;;;5132879;28;19920;-42
2023/06/02 07:36:14;;;;;;;;;;;14.80;99.90;;;;;;5133415;28;19907;-44
2023/06/02 07:38:40;;;;;;;;;;;14.80;99.90;;;;;;5133602;28;20377;-42
2023/06/02 07:41:05;;;;;;;;;;;14.80;99.90;;;;;;5133059;28;19918;-43
2023/06/02 07:43:31;;;;;;;;;;;14.80;99.90;;;;;;5133570;28;19998;-42
2023/06/02 07:45:56;;;;;;;;;;;14.90;99.90;;;;;;5133672;28;20255;-42
2023/06/02 07:48:21;;;;;;;;;;;15.00;99.90;;;;;;5132765;28;20329;-43
2023/06/02 07:50:47;;;;;;;;;;;15.00;99.90;;;;;;5133476;28;19908;-42
2023/06/02 07:53:12;;;;;;;;;;;15.00;99.90;;;;;;5133471;28;19911;-42
2023/06/02 07:55:38;;;;;;;;;;;15.10;99.90;;;;;;5132689;28;19957;-41
2023/06/02 07:58:03;;;;;;;;;;;15.20;99.90;;;;;;5133485;28;19911;-43
2023/06/02 08:00:29;;;;;;;;;;;15.30;99.90;;;;;;5133373;28;20453;-42
2023/06/02 08:02:54;;;;;;;;;;;15.50;99.90;;;;;;5132700;28;19907;-42
2023/06/02 08:05:20;;;;;;;;;;;15.70;99.90;;;;;;5133315;28;20002;-43
2023/06/02 08:07:45;;;;;;;;;;;15.70;99.90;;;;;;5132652;28;19907;-43
2023/06/02 08:10:11;;;;;;;;;;;15.70;99.90;;;;;;5133359;28;19914;-45
2023/06/02 08:12:37;;;;;;;;;;;15.80;99.90;;;;;;5133293;28;20361;-43
2023/06/02 08:15:03;;;;;;;;;;;15.90;99.90;;;;;;5132570;28;20425;-43
2023/06/02 08:17:29;;;;;;;;;;;16.00;99.90;;;;;;5133233;28;19908;-44
2023/06/02 08:19:56;;;;;;;;;;;16.30;99.90;;;;;;5133386;28;20032;-44
2023/06/02 08:22:22;;;;;;;;;;;16.40;99.90;;;;;;5132526;28;20036;-44
2023/06/02 08:24:47;;;;;;;;;;;16.40;99.90;;;;;;5133345;28;20003;-44
2023/06/02 08:27:14;;;;;;;;;;;16.40;99.90;;;;;;5133222;28;20366;-44
2023/06/02 08:29:40;;;;;;;;;;;16.50;99.90;;;;;;5133102;27;19923;-42
2023/06/02 08:32:06;;;;;;;;;;;16.50;99.90;;;;;;5136983;27;19915;-48
2023/06/02 08:34:31;;;;;;;;;;;16.40;99.90;;;;;;5136857;27;19915;-43
2023/06/02 08:37:00;;;;;;;;;;;16.50;99.90;;;;;;5136199;27;19920;-43
2023/06/02 08:39:29;;;;;;;;;;;16.50;99.90;;;;;;5136784;27;19982;-44
2023/06/02 08:42:01;;;;;;;;;;;16.60;99.90;;;;;;5136835;27;19908;-42
2023/06/02 08:44:30;;;;;;;;;;;16.60;99.90;;;;;;5136158;27;20335;-44
2023/06/02 08:46:55;;;;;;;;;;;16.60;99.90;;;;;;5136883;27;19915;-42
2023/06/02 08:49:22;;;;;;;;;;;16.70;99.90;;;;;;5136508;27;19914;-43
2023/06/02 08:51:51;;;;;;;;;;;16.80;99.90;;;;;;5135831;27;20003;-45
2023/06/02 08:54:17;;;;;;;;;;;17.00;99.90;;;;;;5136344;27;19924;-43
2023/06/02 08:56:44;;;;;;;;;;;17.10;99.90;;;;;;5136476;27;19908;-46
2023/06/02 08:59:09;;;;;;;;;;;17.10;99.90;;;;;;5135728;27;19908;-45
2023/06/02 09:01:35;;;;;;;;;;;17.10;99.90;;;;;;5136330;27;20251;-45
2023/06/02 09:04:00;;;;;;;;;;;17.20;99.90;;;;;;5135505;27;19952;-44
2023/06/02 09:06:26;;;;;;;;;;;17.20;99.90;;;;;;5136291;27;20000;-50
2023/06/02 09:08:55;;;;;;;;;;;17.10;99.90;;;;;;5136245;27;19980;-44
2023/06/02 09:11:20;;;;;;;;;;;17.10;99.90;;;;;;5135395;27;19919;-46
2023/06/02 09:13:46;;;;;;;;;;;17.10;99.90;;;;;;5136084;27;19919;-44
2023/06/02 09:16:11;;;;;;;;;;;17.30;99.90;;;;;;5136142;27;19908;-45
2023/06/02 09:18:37;;;;;;;;;;;17.50;99.90;;;;;;5135084;27;19913;-45
2023/06/02 09:21:03;;;;;;;;;;;17.60;99.90;;;;;;5135926;27;19914;-45
2023/06/02 09:23:42;;;;;;;;;;;17.70;99.90;;;;;;5136059;27;19943;-44
2023/06/02 09:26:17;;;;;;;;;;;17.90;99.90;;;;;;5135065;27;20285;-46
2023/06/02 09:28:43;;;;;;;;;;;18.00;99.90;;;;;;5135910;27;19965;-47
2023/06/02 09:31:08;;;;;;;;;;;18.20;99.90;;;;;;5135785;27;19908;-46
2023/06/02 09:33:34;;;;;;;;;;;18.40;99.90;;;;;;5135041;27;19915;-48
2023/06/02 09:36:00;;;;;;;;;;;18.60;99.90;;;;;;5135686;27;19907;-47
2023/06/02 09:38:25;;;;;;;;;;;18.60;99.90;;;;;;5135338;27;19926;-45
2023/06/02 09:40:51;;;;;;;;;;;18.60;99.90;;;;;;5134142;27;19960;-44
2023/06/02 09:43:27;;;;;;;;;;;18.60;99.90;;;;;;5135100;27;19908;-45
2023/06/02 09:45:52;;;;;;;;;;;18.70;99.90;;;;;;5135414;27;20258;-46
2023/06/02 09:48:18;;;;;;;;;;;18.90;99.90;;;;;;5134682;27;19907;-45
2023/06/02 09:50:44;;;;;;;;;;;19.00;99.90;;;;;;5135354;27;20263;-43
2023/06/02 09:53:14;;;;;;;;;;;19.20;99.90;;;;;;5134653;27;19919;-47
2023/06/02 09:55:39;;;;;;;;;;;19.40;99.90;;;;;;5135191;27;19915;-45
2023/06/02 09:58:05;;;;;;;;;;;19.50;99.90;;;;;;5135274;27;19960;-45
2023/06/02 10:00:31;;;;;;;;;;;19.70;99.90;;;;;;5134481;27;19911;-45
2023/06/02 10:02:58;;;;;;;;;;;19.80;99.40;;;;;;5135169;27;19912;-44
2023/06/02 10:05:23;;;;;;;;;;;19.70;97.80;;;;;;5135119;27;19911;-45
2023/06/02 10:07:58;;;;;;;;;;;19.50;95.80;;;;;;5134297;27;19915;-45
2023/06/02 10:10:29;;;;;;;;;;;19.30;97.10;;;;;;5134958;27;19912;-44
2023/06/02 10:13:08;;;;;;;;;;;19.10;96.80;;;;;;5135038;27;19975;-44
2023/06/02 10:15:49;;;;;;;;;;;19.10;96.80;;;;;;5134136;27;19916;-45
2023/06/02 10:18:21;;;;;;;;;;;19.30;95.90;;;;;;5134882;27;19907;-45
2023/06/02 10:21:00;;;;;;;;;;;19.50;96.90;;;;;;5134824;27;19908;-46
2023/06/02 10:23:38;;;;;;;;;;;19.80;96.40;;;;;;5134097;27;19907;-43
2023/06/02 10:26:31;;;;;;;;;;;20.10;97.10;;;;;;5134682;27;19960;-43
2023/06/02 10:28:59;;;;;;;;;;;20.40;96.20;;;;;;5133795;27;19914;-42
2023/06/02 10:31:31;;;;;;;;;;;20.60;96.10;;;;;;5134740;27;19914;-43
2023/06/02 10:33:58;;;;;;;;;;;20.60;94.80;;;;;;5134432;27;19920;-43
2023/06/02 10:36:24;;;;;;;;;;;20.50;94.50;;;;;;5133404;27;20006;-44
2023/06/02 10:38:50;;;;;;;;;;;20.40;93.80;;;;;;5134444;27;19927;-47
2023/06/02 10:41:21;;;;;;;;;;;20.10;93.40;;;;;;5134546;27;19907;-47
2023/06/02 10:44:05;;;;;;;;;;;20.00;93.00;;;;;;5133683;27;19912;-41
2023/06/02 10:46:31;;;;;;;;;;;19.90;92.20;;;;;;5134087;27;19907;-42
2023/06/02 10:48:56;;;;;;;;;;;20.00;92.50;;;;;;5134296;27;20319;-41
2023/06/02 10:51:22;;;;;;;;;;;20.00;92.20;;;;;;5133293;27;19908;-41
2023/06/02 10:54:04;;;;;;;;;;;19.90;91.70;;;;;;5133735;27;19915;-42
2023/06/02 10:56:35;;;;;;;;;;;19.80;91.80;;;;;;5133349;27;19914;-42
2023/06/02 10:59:01;;;;;;;;;;;19.80;92.50;;;;;;5134110;27;20048;-40
2023/06/02 11:01:46;;;;;;;;;;;19.90;92.80;;;;;;5133993;27;19914;-43
2023/06/02 11:04:25;;;;;;;;;;;19.90;92.50;;;;;;5133357;27;19907;-43
2023/06/02 11:07:26;;;;;;;;;;;20.00;92.10;;;;;;5134033;27;19911;-45
2023/06/02 11:09:54;;;;;;;;;;;20.10;92.00;;;;;;5089053;27;19930;-43
2023/06/02 11:12:20;;;;;;;;;;;20.10;92.60;;;;;;5133363;27;19908;-45
2023/06/02 11:15:01;;;;;;;;;;;20.10;92.50;;;;;;5133790;27;20382;-42
2023/06/02 11:17:28;;;;;;;;;;;20.20;91.40;;;;;;5133739;27;19914;-49
2023/06/02 11:19:54;;;;;;;;;;;20.40;91.30;;;;;;5133383;27;19947;-42
2023/06/02 11:22:19;;;;;;;;;;;20.50;89.20;;;;;;5133917;27;19955;-44
2023/06/02 11:24:46;;;;;;;;;;;20.60;86.80;;;;;;5133027;28;19962;-43
2023/06/02 11:27:11;;;;;;;;;;;20.70;87.30;;;;;;5133832;27;19950;-42
2023/06/02 11:29:36;;;;;;;;;;;20.70;85.80;;;;;;5133677;27;19968;-43
2023/06/02 11:32:04;;;;;;;;;;;20.70;82.70;;;;;;5133237;28;19915;-44
2023/06/02 11:34:29;;;;;;;;;;;20.70;81.70;;;;;;5133534;28;19919;-43
2023/06/02 11:36:55;;;;;;;;;;;20.70;79.60;;;;;;5133479;28;19923;-42
2023/06/02 11:39:20;;;;;;;;;;;20.70;81.10;;;;;;5132881;28;19911;-43
2023/06/02 11:42:04;;;;;;;;;;;20.80;82.70;;;;;;5133569;28;19914;-45
2023/06/02 11:44:30;;;;;;;;;;;20.90;78.00;;;;;;5133612;28;20393;-41
2023/06/02 11:46:55;;;;;;;;;;;20.90;77.40;;;;;;5132702;28;19915;-42
2023/06/02 11:49:21;;;;;;;;;;;20.90;80.20;;;;;;5133443;28;19908;-43
2023/06/02 11:51:46;;;;;;;;;;;21.00;78.70;;;;;;5133602;28;19908;-43
2023/06/02 11:54:13;;;;;;;;;;;21.10;79.00;;;;;;5114222;28;19942;-44
2023/06/02 11:56:40;;;;;;;;;;;21.10;76.70;;;;;;5133321;28;19968;-43
2023/06/02 11:59:13;;;;;;;;;;;21.10;76.40;;;;;;5133573;28;19907;-46
2023/06/02 12:01:39;;;;;;;;;;;21.10;73.20;;;;;;5132855;28;19908;-43
2023/06/02 12:04:05;;;;;;;;;;;21.10;74.10;;;;;;5133744;27;19907;-43
2023/06/02 12:06:31;;;;;;;;;;;21.00;73.40;;;;;;5137163;27;20436;-42
2023/06/02 12:09:09;;;;;;;;;;;21.10;73.80;;;;;;5136695;27;19923;-42
2023/06/02 12:11:35;;;;;;;;;;;21.10;73.30;;;;;;5137340;27;19918;-42
2023/06/02 12:14:01;;;;;;;;;;;21.10;74.70;;;;;;5136457;27;19919;-44
2023/06/02 12:16:27;;;;;;;;;;;21.20;73.80;;;;;;5137227;27;19943;-45
2023/06/02 12:18:54;;;;;;;;;;;21.30;75.90;;;;;;5137341;27;19954;-43
2023/06/02 12:21:22;;;;;;;;;;;21.50;76.80;;;;;;5136397;27;19908;-43
2023/06/02 12:23:47;;;;;;;;;;;21.70;74.50;;;;;;5137273;27;19907;-43
2023/06/02 12:26:13;;;;;;;;;;;21.80;72.50;;;;;;5137243;27;19915;-43
2023/06/02 12:28:39;;;;;;;;;;;21.90;72.70;;;;;;5136206;27;19907;-42
2023/06/02 12:31:04;;;;;;;;;;;22.10;75.30;;;;;;5136933;27;19907;-44
2023/06/02 12:33:29;;;;;;;;;;;22.00;74.60;;;;;;5136835;27;19915;-42
2023/06/02 12:35:55;;;;;;;;;;;21.70;71.70;;;;;;5136099;27;19968;-44
2023/06/02 12:38:20;;;;;;;;;;;21.70;71.20;;;;;;5136435;27;19923;-42
2023/06/02 12:40:47;;;;;;;;;;;21.90;72.30;;;;;;5136757;27;20421;-43
2023/06/02 12:43:13;;;;;;;;;;;22.30;72.00;;;;;;5136016;27;19915;-42
2023/06/02 12:45:38;;;;;;;;;;;22.70;73.00;;;;;;5136591;27;19922;-44
2023/06/02 12:48:04;;;;;;;;;;;23.00;72.40;;;;;;5136752;27;19908;-46
2023/06/02 12:50:29;;;;;;;;;;;23.40;72.60;;;;;;5135811;27;19907;-42
2023/06/02 12:52:57;;;;;;;;;;;23.80;72.00;;;;;;5136788;27;20084;-43
2023/06/02 12:55:22;;;;;;;;;;;24.20;72.10;;;;;;5136392;27;19977;-42
2023/06/02 12:57:48;;;;;;;;;;;24.30;69.70;;;;;;5135613;27;20371;-43
2023/06/02 13:00:15;;;;;;;;;;;24.50;71.20;;;;;;5136553;27;20345;-46
2023/06/02 13:02:41;;;;;;;;;;;24.60;67.70;;;;;;5136302;27;20375;-43
2023/06/02 13:05:08;;;;;;;;;;;24.80;67.10;;;;;;5135600;27;20011;-43
2023/06/02 13:07:34;;;;;;;;;;;24.90;66.90;;;;;;5136190;27;19907;-43
2023/06/02 13:10:00;;;;;;;;;;;24.40;68.00;;;;;;5136006;27;19914;-47
2023/06/02 13:12:25;;;;;;;;;;;24.00;68.70;;;;;;5135645;27;19907;-43
2023/06/02 13:14:51;;;;;;;;;;;23.40;68.30;;;;;;5136139;27;19915;-42
2023/06/02 13:17:16;;;;;;;;;;;23.00;69.20;;;;;;5135008;27;19907;-43
2023/06/02 13:19:45;;;;;;;;;;;22.70;68.30;;;;;;5136009;27;19998;-43
2023/06/02 13:22:11;;;;;;;;;;;22.60;68.30;;;;;;5136050;27;20301;-43
2023/06/02 13:24:37;;;;;;;;;;;23.10;71.30;;;;;;5135106;27;20385;-42
2023/06/02 13:27:02;;;;;;;;;;;23.90;71.90;;;;;;5135884;27;19914;-42
2023/06/02 13:29:28;;;;;;;;;;;23.90;68.40;;;;;;5135762;27;19967;-42
2023/06/02 13:31:53;;;;;;;;;;;23.70;68.30;;;;;;5135168;27;19994;-42
2023/06/02 13:34:19;;;;;;;;;;;23.30;69.00;;;;;;5135728;27;20434;-42
2023/06/02 13:36:46;;;;;;;;;;;22.90;69.10;;;;;;5135284;27;19919;-42
2023/06/02 13:39:12;;;;;;;;;;;22.60;69.10;;;;;;5134815;27;20337;-42
2023/06/02 13:41:38;;;;;;;;;;;22.30;69.50;;;;;;5135610;27;19907;-45
2023/06/02 13:44:03;;;;;;;;;;;22.40;71.40;;;;;;5135611;27;20396;-42
2023/06/02 13:46:29;;;;;;;;;;;23.10;72.20;;;;;;5134678;27;19908;-43
2023/06/02 13:48:54;;;;;;;;;;;23.90;72.00;;;;;;5135628;27;19908;-42
2023/06/02 13:51:20;;;;;;;;;;;24.00;68.50;;;;;;5135494;27;19927;-42
2023/06/02 13:53:45;;;;;;;;;;;23.70;66.70;;;;;;5134540;27;19922;-43
2023/06/02 13:56:11;;;;;;;;;;;23.30;66.10;;;;;;5135314;27;19907;-43
2023/06/02 13:58:36;;;;;;;;;;;22.90;66.70;;;;;;5135223;27;20405;-44
2023/06/02 14:01:03;;;;;;;;;;;22.60;68.10;;;;;;5134511;27;19907;-44
2023/06/02 14:03:28;;;;;;;;;;;22.40;67.70;;;;;;5135135;27;20358;-44
2023/06/02 14:05:54;;;;;;;;;;;22.10;67.70;;;;;;5135151;27;19915;-45
2023/06/02 14:08:20;;;;;;;;;;;22.20;68.70;;;;;;5134305;27;20285;-44
2023/06/02 14:10:45;;;;;;;;;;;22.80;67.80;;;;;;5134933;27;20412;-43
2023/06/02 14:13:11;;;;;;;;;;;23.60;66.50;;;;;;5135053;27;19915;-42